sensor_id;sensor_type;location;lat;lon;timestamp;pressure;altitude;pressure_sealevel;temperature;humidity
70158;BME280;57524;48.312;7.938;2022-09-11T00:01:29;99516.13;;;16.07;77.44
70158;BME280;57524;48.312;7.938;2022-09-11T00:03:57;99524.03;;;16.09;77.03
70158;BME280;57524;48.312;7.938;2022-09-11T00:06:26;99518.72;;;16.09;77.34
70158;BME280;57524;48.312;7.938;2022-09-11T00:08:53;99511.53;;;16.11;76.75
70158;BME280;57524;48.312;7.938;2022-09-11T00:11:25;99515.88;;;16.13;77.14
70158;BME280;57524;48.312;7.938;2022-09-11T00:13:52;99512.53;;;16.08;76.94
70158;BME280;57524;48.312;7.938;2022-09-11T00:16:22;99509.78;;;16.10;76.93
70158;BME280;57524;48.312;7.938;2022-09-11T00:18:49;99502.91;;;16.06;77.12
70158;BME280;57524;48.312;7.938;2022-09-11T00:21:16;99490.66;;;16.02;77.15
70158;BME280;57524;48.312;7.938;2022-09-11T00:23:44;99497.84;;;15.99;76.90
70158;BME280;57524;48.312;7.938;2022-09-11T00:26:13;99503.75;;;16.06;76.67
70158;BME280;57524;48.312;7.938;2022-09-11T00:28:40;99508.09;;;16.09;77.03
70158;BME280;57524;48.312;7.938;2022-09-11T00:31:09;99502.00;;;16.05;76.75
70158;BME280;57524;48.312;7.938;2022-09-11T00:33:37;99505.63;;;16.04;77.11
70158;BME280;57524;48.312;7.938;2022-09-11T00:36:06;99503.75;;;16.06;77.11
70158;BME280;57524;48.312;7.938;2022-09-11T00:38:36;99503.75;;;16.06;77.37
70158;BME280;57524;48.312;7.938;2022-09-11T00:41:07;99501.25;;;16.03;76.89
70158;BME280;57524;48.312;7.938;2022-09-11T00:43:55;99495.13;;;16.01;77.24
70158;BME280;57524;48.312;7.938;2022-09-11T00:46:27;99498.59;;;16.03;76.66
70158;BME280;57524;48.312;7.938;2022-09-11T00:48:56;99504.75;;;16.04;76.94
70158;BME280;57524;48.312;7.938;2022-09-11T00:51:25;99502.16;;;16.02;76.69
70158;BME280;57524;48.312;7.938;2022-09-11T00:53:55;99494.97;;;16.04;76.48
70158;BME280;57524;48.312;7.938;2022-09-11T00:56:28;99491.38;;;16.05;76.32
70158;BME280;57524;48.312;7.938;2022-09-11T00:58:56;99489.66;;;16.04;76.58
70158;BME280;57524;48.312;7.938;2022-09-11T01:01:23;99497.63;;;16.04;77.14
70158;BME280;57524;48.312;7.938;2022-09-11T01:03:50;99494.19;;;16.02;77.00
70158;BME280;57524;48.312;7.938;2022-09-11T01:06:17;99489.66;;;16.04;76.52
70158;BME280;57524;48.312;7.938;2022-09-11T01:08:45;99487.16;;;16.01;76.67
70158;BME280;57524;48.312;7.938;2022-09-11T01:11:20;99483.59;;;16.00;76.59
70158;BME280;57524;48.312;7.938;2022-09-11T01:13:58;99487.16;;;16.01;76.68
70158;BME280;57524;48.312;7.938;2022-09-11T01:16:34;99492.47;;;16.01;76.29
70158;BME280;57524;48.312;7.938;2022-09-11T01:19:10;99478.41;;;15.97;77.32
70158;BME280;57524;48.312;7.938;2022-09-11T01:24:55;99488.19;;;15.97;76.84
70158;BME280;57524;48.312;7.938;2022-09-11T01:27:37;99486.34;;;15.99;76.68
70158;BME280;57524;48.312;7.938;2022-09-11T01:30:09;99491.78;;;15.96;76.62
70158;BME280;57524;48.312;7.938;2022-09-11T01:32:43;99493.78;;;15.91;77.16
70158;BME280;57524;48.312;7.938;2022-09-11T01:35:17;99493.63;;;15.94;76.87
70158;BME280;57524;48.312;7.938;2022-09-11T01:37:51;99492.78;;;15.93;76.91
70158;BME280;57524;48.312;7.938;2022-09-11T01:40:23;99493.63;;;15.94;77.18
70158;BME280;57524;48.312;7.938;2022-09-11T01:42:58;99490.97;;;15.94;76.98
70158;BME280;57524;48.312;7.938;2022-09-11T01:45:27;99492.78;;;15.93;76.95
70158;BME280;57524;48.312;7.938;2022-09-11T01:47:57;99490.97;;;15.94;77.05
70158;BME280;57524;48.312;7.938;2022-09-11T01:50:25;99488.19;;;15.97;76.94
70158;BME280;57524;48.312;7.938;2022-09-11T01:52:56;99485.41;;;16.00;76.60
70158;BME280;57524;48.312;7.938;2022-09-11T01:55:28;99487.16;;;16.01;77.00
70158;BME280;57524;48.312;7.938;2022-09-11T01:58:05;99494.22;;;16.00;77.17
70158;BME280;57524;48.312;7.938;2022-09-11T02:00:37;99497.84;;;15.99;77.07
70158;BME280;57524;48.312;7.938;2022-09-11T02:03:08;99497.84;;;15.99;77.00
70158;BME280;57524;48.312;7.938;2022-09-11T02:05:40;99503.09;;;16.01;76.95
70158;BME280;57524;48.312;7.938;2022-09-11T02:08:16;99494.38;;;15.97;76.58
70158;BME280;57524;48.312;7.938;2022-09-11T02:10:46;99493.53;;;15.97;76.52
70158;BME280;57524;48.312;7.938;2022-09-11T02:13:22;99498.94;;;15.94;76.64
70158;BME280;57524;48.312;7.938;2022-09-11T02:15:57;99497.03;;;15.97;76.70
70158;BME280;57524;48.312;7.938;2022-09-11T02:18:35;99497.09;;;15.96;76.69
70158;BME280;57524;48.312;7.938;2022-09-11T02:21:05;99492.72;;;15.95;76.69
70158;BME280;57524;48.312;7.938;2022-09-11T02:23:31;99498.94;;;15.94;76.99
70158;BME280;57524;48.312;7.938;2022-09-11T02:25:59;99504.16;;;15.97;76.67
70158;BME280;57524;48.312;7.938;2022-09-11T02:28:27;99500.81;;;15.92;76.81
70158;BME280;57524;48.312;7.938;2022-09-11T02:30:54;99500.81;;;15.92;76.82
70158;BME280;57524;48.312;7.938;2022-09-11T02:33:29;99492.81;;;15.92;76.33
70158;BME280;57524;48.312;7.938;2022-09-11T02:36:06;99490.31;;;15.89;76.74
70158;BME280;57524;48.312;7.938;2022-09-11T02:38:44;99495.47;;;15.92;76.54
70158;BME280;57524;48.312;7.938;2022-09-11T02:41:16;99481.66;;;15.84;76.85
70158;BME280;57524;48.312;7.938;2022-09-11T02:43:58;99482.38;;;15.87;76.79
70158;BME280;57524;48.312;7.938;2022-09-11T02:46:41;99486.84;;;15.87;76.83
70158;BME280;57524;48.312;7.938;2022-09-11T02:49:20;99490.31;;;15.89;76.94
70158;BME280;57524;48.312;7.938;2022-09-11T02:51:55;99493.09;;;15.86;76.65
70158;BME280;57524;48.312;7.938;2022-09-11T02:54:33;99492.97;;;15.89;76.29
70158;BME280;57524;48.312;7.938;2022-09-11T02:57:08;99495.63;;;15.89;76.48
70158;BME280;57524;48.312;7.938;2022-09-11T02:59:42;99492.16;;;15.87;76.21
70158;BME280;57524;48.312;7.938;2022-09-11T03:02:12;99486.13;;;15.83;76.47
70158;BME280;57524;48.312;7.938;2022-09-11T03:04:40;99494.03;;;15.85;76.79
70158;BME280;57524;48.312;7.938;2022-09-11T03:07:07;99486.13;;;15.83;76.41
70158;BME280;57524;48.312;7.938;2022-09-11T03:09:36;99487.78;;;15.86;76.23
70158;BME280;57524;48.312;7.938;2022-09-11T03:12:08;99492.31;;;15.84;76.21
70158;BME280;57524;48.312;7.938;2022-09-11T03:14:36;99492.31;;;15.84;76.32
70158;BME280;57524;48.312;7.938;2022-09-11T03:17:05;99486.97;;;15.84;76.51
70158;BME280;57524;48.312;7.938;2022-09-11T03:19:33;99483.38;;;15.85;76.16
70158;BME280;57524;48.312;7.938;2022-09-11T03:22:00;99482.72;;;15.79;76.33
70158;BME280;57524;48.312;7.938;2022-09-11T03:24:27;99481.72;;;15.82;76.22
70158;BME280;57524;48.312;7.938;2022-09-11T03:26:54;99479.13;;;15.80;76.30
70158;BME280;57524;48.312;7.938;2022-09-11T03:29:21;99485.38;;;15.79;76.46
70158;BME280;57524;48.312;7.938;2022-09-11T03:31:48;99487.22;;;15.77;76.46
70158;BME280;57524;48.312;7.938;2022-09-11T03:34:17;99487.09;;;15.80;76.46
70158;BME280;57524;48.312;7.938;2022-09-11T03:36:44;99489.84;;;15.79;76.07
70158;BME280;57524;48.312;7.938;2022-09-11T03:39:12;99491.69;;;15.77;76.86
70158;BME280;57524;48.312;7.938;2022-09-11T03:41:39;99489.09;;;15.75;77.00
70158;BME280;57524;48.312;7.938;2022-09-11T03:44:05;99487.38;;;15.74;77.13
70158;BME280;57524;48.312;7.938;2022-09-11T03:46:33;99488.28;;;15.73;76.93
70158;BME280;57524;48.312;7.938;2022-09-11T03:49:00;99490.88;;;15.75;76.86
70158;BME280;57524;48.312;7.938;2022-09-11T03:51:30;99487.38;;;15.74;76.92
70158;BME280;57524;48.312;7.938;2022-09-11T03:53:58;99488.03;;;15.79;77.04
70158;BME280;57524;48.312;7.938;2022-09-11T03:56:27;99488.09;;;15.78;77.22
70158;BME280;57524;48.312;7.938;2022-09-11T03:58:54;99487.09;;;15.80;77.12
70158;BME280;57524;48.312;7.938;2022-09-11T04:01:23;99487.22;;;15.77;77.03
70158;BME280;57524;48.312;7.938;2022-09-11T04:03:51;99498.00;;;15.74;77.38
70158;BME280;57524;48.312;7.938;2022-09-11T04:06:26;99500.78;;;15.71;77.50
70158;BME280;57524;48.312;7.938;2022-09-11T04:08:55;99494.63;;;15.69;77.35
70158;BME280;57524;48.312;7.938;2022-09-11T04:11:22;99507.13;;;15.67;77.61
70158;BME280;57524;48.312;7.938;2022-09-11T04:13:50;99507.13;;;15.67;77.56
70158;BME280;57524;48.312;7.938;2022-09-11T04:16:18;99499.16;;;15.67;77.53
70158;BME280;57524;48.312;7.938;2022-09-11T04:18:49;99504.59;;;15.64;77.40
70158;BME280;57524;48.312;7.938;2022-09-11T04:21:17;99512.69;;;15.61;77.48
70158;BME280;57524;48.312;7.938;2022-09-11T04:23:49;99508.19;;;15.63;77.55
70158;BME280;57524;48.312;7.938;2022-09-11T04:26:19;99504.53;;;15.66;77.33
70158;BME280;57524;48.312;7.938;2022-09-11T04:28:50;99505.53;;;15.63;77.12
70158;BME280;57524;48.312;7.938;2022-09-11T04:31:19;99506.53;;;15.61;77.41
70158;BME280;57524;48.312;7.938;2022-09-11T04:33:47;99507.38;;;15.61;77.38
70158;BME280;57524;48.312;7.938;2022-09-11T04:36:15;99512.69;;;15.61;77.60
70158;BME280;57524;48.312;7.938;2022-09-11T04:38:42;99516.25;;;15.60;77.30
70158;BME280;57524;48.312;7.938;2022-09-11T04:41:11;99518.06;;;15.59;77.41
70158;BME280;57524;48.312;7.938;2022-09-11T04:43:41;99527.03;;;15.57;77.51
70158;BME280;57524;48.312;7.938;2022-09-11T04:46:12;99528.88;;;15.55;77.45
70158;BME280;57524;48.312;7.938;2022-09-11T04:48:44;99535.13;;;15.54;77.69
70158;BME280;57524;48.312;7.938;2022-09-11T04:51:19;99534.19;;;15.55;77.77
70158;BME280;57524;48.312;7.938;2022-09-11T04:53:46;99540.25;;;15.58;77.68
70158;BME280;57524;48.312;7.938;2022-09-11T04:56:15;99540.25;;;15.58;77.37
70158;BME280;57524;48.312;7.938;2022-09-11T04:58:51;99530.50;;;15.59;77.60
70158;BME280;57524;48.312;7.938;2022-09-11T05:01:21;99529.56;;;15.60;77.49
70158;BME280;57524;48.312;7.938;2022-09-11T05:03:54;99533.09;;;15.61;77.32
70158;BME280;57524;48.312;7.938;2022-09-11T05:06:21;99546.31;;;15.62;77.18
70158;BME280;57524;48.312;7.938;2022-09-11T05:08:48;99539.28;;;15.61;77.13
70158;BME280;57524;48.312;7.938;2022-09-11T05:11:18;99551.88;;;15.56;76.97
70158;BME280;57524;48.312;7.938;2022-09-11T05:13:47;99549.28;;;15.54;77.23
70158;BME280;57524;48.312;7.938;2022-09-11T05:16:15;99560.78;;;15.55;77.21
70158;BME280;57524;48.312;7.938;2022-09-11T05:18:47;99565.19;;;15.56;77.28
70158;BME280;57524;48.312;7.938;2022-09-11T05:21:18;99562.53;;;15.56;77.18
70158;BME280;57524;48.312;7.938;2022-09-11T05:23:47;99565.31;;;15.51;77.87
70158;BME280;57524;48.312;7.938;2022-09-11T05:26:15;99573.47;;;15.47;77.87
70158;BME280;57524;48.312;7.938;2022-09-11T05:28:43;99581.47;;;15.47;78.02
70158;BME280;57524;48.312;7.938;2022-09-11T05:31:13;99578.78;;;15.47;78.23
70158;BME280;57524;48.312;7.938;2022-09-11T05:33:41;99575.22;;;15.48;78.01
70158;BME280;57524;48.312;7.938;2022-09-11T05:36:10;99585.00;;;15.47;78.10
70158;BME280;57524;48.312;7.938;2022-09-11T05:38:38;99581.41;;;15.48;78.24
70158;BME280;57524;48.312;7.938;2022-09-11T05:41:06;99590.31;;;15.47;78.52
70158;BME280;57524;48.312;7.938;2022-09-11T05:43:35;99596.38;;;15.51;77.84
70158;BME280;57524;48.312;7.938;2022-09-11T05:46:03;99590.94;;;15.54;77.62
70158;BME280;57524;48.312;7.938;2022-09-11T05:48:34;99597.94;;;15.56;77.86
70158;BME280;57524;48.312;7.938;2022-09-11T05:51:04;99599.59;;;15.59;77.77
70158;BME280;57524;48.312;7.938;2022-09-11T05:53:33;99595.09;;;15.61;77.56
70158;BME280;57524;48.312;7.938;2022-09-11T05:56:06;99603.06;;;15.61;77.61
70158;BME280;57524;48.312;7.938;2022-09-11T05:58:33;99601.31;;;15.60;78.03
70158;BME280;57524;48.312;7.938;2022-09-11T06:01:04;99598.56;;;15.63;77.97
70158;BME280;57524;48.312;7.938;2022-09-11T06:03:34;99599.47;;;15.62;77.79
70158;BME280;57524;48.312;7.938;2022-09-11T06:06:02;99610.97;;;15.63;78.02
70158;BME280;57524;48.312;7.938;2022-09-11T06:08:30;99609.19;;;15.63;78.18
70158;BME280;57524;48.312;7.938;2022-09-11T06:11:00;99606.41;;;15.66;77.95
70158;BME280;57524;48.312;7.938;2022-09-11T06:13:28;99610.00;;;15.65;77.90
70158;BME280;57524;48.312;7.938;2022-09-11T06:15:58;99613.47;;;15.67;77.85
70158;BME280;57524;48.312;7.938;2022-09-11T06:18:25;99615.19;;;15.68;77.66
70158;BME280;57524;48.312;7.938;2022-09-11T06:20:59;99616.84;;;15.72;77.16
70158;BME280;57524;48.312;7.938;2022-09-11T06:23:27;99615.78;;;15.76;77.21
70158;BME280;57524;48.312;7.938;2022-09-11T06:26:01;99621.91;;;15.78;78.04
70158;BME280;57524;48.312;7.938;2022-09-11T06:28:31;99618.44;;;15.76;77.82
70158;BME280;57524;48.312;7.938;2022-09-11T06:31:00;99618.44;;;15.76;78.22
70158;BME280;57524;48.312;7.938;2022-09-11T06:33:30;99615.78;;;15.76;77.90
70158;BME280;57524;48.312;7.938;2022-09-11T06:36:01;99621.03;;;15.78;78.38
70158;BME280;57524;48.312;7.938;2022-09-11T06:38:29;99623.63;;;15.79;78.18
70158;BME280;57524;48.312;7.938;2022-09-11T06:40:56;99626.28;;;15.79;78.33
70158;BME280;57524;48.312;7.938;2022-09-11T06:43:24;99628.94;;;15.79;78.18
70158;BME280;57524;48.312;7.938;2022-09-11T06:45:52;99621.78;;;15.82;77.35
70158;BME280;57524;48.312;7.938;2022-09-11T06:48:18;99612.31;;;15.74;77.75
70158;BME280;57524;48.312;7.938;2022-09-11T06:50:45;99626.88;;;15.88;77.65
70158;BME280;57524;48.312;7.938;2022-09-11T06:53:13;99631.06;;;15.93;77.44
70158;BME280;57524;48.312;7.938;2022-09-11T06:55:47;99633.53;;;15.98;77.08
70158;BME280;57524;48.312;7.938;2022-09-11T06:58:15;99632.63;;;15.99;77.15
70158;BME280;57524;48.312;7.938;2022-09-11T07:00:41;99629.81;;;16.02;77.67
70158;BME280;57524;48.312;7.938;2022-09-11T07:03:10;99630.78;;;16.01;77.28
70158;BME280;57524;48.312;7.938;2022-09-11T07:05:37;99626.25;;;16.03;76.97
70158;BME280;57524;48.312;7.938;2022-09-11T07:08:03;99631.56;;;16.03;77.63
70158;BME280;57524;48.312;7.938;2022-09-11T07:10:35;99633.28;;;16.04;77.18
70158;BME280;57524;48.312;7.938;2022-09-11T07:13:01;99631.44;;;16.06;77.15
70158;BME280;57524;48.312;7.938;2022-09-11T07:15:30;99640.09;;;16.11;76.62
70158;BME280;57524;48.312;7.938;2022-09-11T07:17:57;99646.22;;;16.13;76.59
70158;BME280;57524;48.312;7.938;2022-09-11T07:20:25;99633.72;;;16.15;76.82
70158;BME280;57524;48.312;7.938;2022-09-11T07:22:52;99630.94;;;16.18;76.78
70158;BME280;57524;48.312;7.938;2022-09-11T07:25:19;99632.44;;;16.26;76.69
70158;BME280;57524;48.312;7.938;2022-09-11T07:27:47;99629.50;;;16.32;77.50
70158;BME280;57524;48.312;7.938;2022-09-11T07:30:16;99629.38;;;16.35;77.00
70158;BME280;57524;48.312;7.938;2022-09-11T07:32:46;99630.03;;;16.40;76.88
70158;BME280;57524;48.312;7.938;2022-09-11T07:35:14;99636.84;;;16.47;76.49
70158;BME280;57524;48.312;7.938;2022-09-11T07:37:46;99632.31;;;16.49;76.62
70158;BME280;57524;48.312;7.938;2022-09-11T07:40:14;99636.59;;;16.53;76.48
70158;BME280;57524;48.312;7.938;2022-09-11T07:42:41;99638.19;;;16.57;76.77
70158;BME280;57524;48.312;7.938;2022-09-11T07:45:11;99638.06;;;16.60;76.46
70158;BME280;57524;48.312;7.938;2022-09-11T07:47:38;99636.19;;;16.62;76.63
70158;BME280;57524;48.312;7.938;2022-09-11T07:50:06;99639.81;;;16.61;76.71
70158;BME280;57524;48.312;7.938;2022-09-11T07:52:34;99650.16;;;16.68;76.21
70158;BME280;57524;48.312;7.938;2022-09-11T07:55:03;99653.78;;;16.67;76.33
70158;BME280;57524;48.312;7.938;2022-09-11T07:57:33;99653.63;;;16.70;75.99
70158;BME280;57524;48.312;7.938;2022-09-11T08:00:03;99655.38;;;16.71;76.19
70158;BME280;57524;48.312;7.938;2022-09-11T08:02:47;99649.09;;;16.72;76.13
70158;BME280;57524;48.312;7.938;2022-09-11T08:05:17;99655.25;;;16.74;76.36
70158;BME280;57524;48.312;7.938;2022-09-11T08:07:45;99652.63;;;16.72;76.28
70158;BME280;57524;48.312;7.938;2022-09-11T08:10:13;99662.31;;;16.75;76.43
70158;BME280;57524;48.312;7.938;2022-09-11T08:12:39;99664.16;;;16.73;76.69
70158;BME280;57524;48.312;7.938;2022-09-11T08:15:07;99653.63;;;16.70;76.31
70158;BME280;57524;48.312;7.938;2022-09-11T08:17:34;99655.38;;;16.71;76.56
70158;BME280;57524;48.312;7.938;2022-09-11T08:20:02;99660.56;;;16.74;76.11
70158;BME280;57524;48.312;7.938;2022-09-11T08:22:30;99660.41;;;16.77;76.11
70158;BME280;57524;48.312;7.938;2022-09-11T08:24:57;99667.50;;;16.78;76.05
70158;BME280;57524;48.312;7.938;2022-09-11T08:27:23;99663.88;;;16.79;76.08
70158;BME280;57524;48.312;7.938;2022-09-11T08:29:50;99658.69;;;16.76;75.74
70158;BME280;57524;48.312;7.938;2022-09-11T08:32:18;99669.00;;;16.85;76.14
70158;BME280;57524;48.312;7.938;2022-09-11T08:34:45;99670.75;;;16.86;75.95
70158;BME280;57524;48.312;7.938;2022-09-11T08:37:14;99673.31;;;16.88;76.10
70158;BME280;57524;48.312;7.938;2022-09-11T08:39:43;99668.72;;;16.91;75.78
70158;BME280;57524;48.312;7.938;2022-09-11T08:42:13;99668.59;;;16.94;75.64
70158;BME280;57524;48.312;7.938;2022-09-11T08:44:45;99675.50;;;16.98;75.55
70158;BME280;57524;48.312;7.938;2022-09-11T08:47:30;99673.66;;;17.00;75.59
70158;BME280;57524;48.312;7.938;2022-09-11T08:50:02;99667.31;;;17.03;75.30
70158;BME280;57524;48.312;7.938;2022-09-11T08:52:34;99664.44;;;17.08;74.77
70158;BME280;57524;48.312;7.938;2022-09-11T08:55:07;99665.78;;;17.18;74.68
70158;BME280;57524;48.312;7.938;2022-09-11T08:57:42;99668.94;;;17.26;74.55
70158;BME280;57524;48.312;7.938;2022-09-11T09:00:18;99665.81;;;17.37;73.86
70158;BME280;57524;48.312;7.938;2022-09-11T09:03:10;99658.34;;;17.45;72.98
70158;BME280;57524;48.312;7.938;2022-09-11T09:05:44;99663.19;;;17.56;72.53
70158;BME280;57524;48.312;7.938;2022-09-11T09:08:27;99661.81;;;17.66;71.84
70158;BME280;57524;48.312;7.938;2022-09-11T09:11:03;99668.56;;;17.73;71.81
70158;BME280;57524;48.312;7.938;2022-09-11T09:14:01;99659.38;;;17.80;71.55
70158;BME280;57524;48.312;7.938;2022-09-11T09:16:41;99660.84;;;17.88;71.10
70158;BME280;57524;48.312;7.938;2022-09-11T09:19:14;99664.94;;;17.95;70.76
70158;BME280;57524;48.312;7.938;2022-09-11T09:21:47;99666.31;;;18.03;70.35
70158;BME280;57524;48.312;7.938;2022-09-11T09:24:19;99663.56;;;18.05;69.45
70158;BME280;57524;48.312;7.938;2022-09-11T09:26:50;99670.34;;;18.12;69.53
70158;BME280;57524;48.312;7.938;2022-09-11T09:29:19;99663.13;;;18.14;69.84
70158;BME280;57524;48.312;7.938;2022-09-11T09:31:50;99663.75;;;18.19;69.43
70158;BME280;57524;48.312;7.938;2022-09-11T09:34:19;99672.09;;;18.31;69.68
70158;BME280;57524;48.312;7.938;2022-09-11T09:36:52;99664.25;;;18.27;67.96
70158;BME280;57524;48.312;7.938;2022-09-11T09:39:22;99674.75;;;18.31;67.40
70158;BME280;57524;48.312;7.938;2022-09-11T09:42:08;99668.56;;;18.30;67.42
70158;BME280;57524;48.312;7.938;2022-09-11T09:44:54;99671.13;;;18.32;67.38
70158;BME280;57524;48.312;7.938;2022-09-11T09:47:26;99670.38;;;18.47;66.59
70158;BME280;57524;48.312;7.938;2022-09-11T09:49:54;99659.56;;;18.50;66.40
70158;BME280;57524;48.312;7.938;2022-09-11T09:52:24;99662.41;;;18.64;66.02
70158;BME280;57524;48.312;7.938;2022-09-11T09:54:55;99663.66;;;18.75;65.37
70158;BME280;57524;48.312;7.938;2022-09-11T09:57:28;99664.31;;;18.80;65.14
70158;BME280;57524;48.312;7.938;2022-09-11T10:00:00;99659.28;;;18.91;64.63
70158;BME280;57524;48.312;7.938;2022-09-11T10:02:39;99652.19;;;18.90;63.87
70158;BME280;57524;48.312;7.938;2022-09-11T10:05:16;99648.28;;;18.97;63.58
70158;BME280;57524;48.312;7.938;2022-09-11T10:07:48;99646.78;;;19.09;64.07
70158;BME280;57524;48.312;7.938;2022-09-11T10:10:28;99645.41;;;19.18;64.64
70158;BME280;57524;48.312;7.938;2022-09-11T10:12:57;99644.13;;;19.25;64.43
70158;BME280;57524;48.312;7.938;2022-09-11T10:15:25;99642.53;;;19.38;63.44
70158;BME280;57524;48.312;7.938;2022-09-11T10:17:52;99632.38;;;19.45;63.60
70158;BME280;57524;48.312;7.938;2022-09-11T10:20:23;99636.19;;;19.57;63.04
70158;BME280;57524;48.312;7.938;2022-09-11T10:22:53;99639.13;;;19.68;62.71
70158;BME280;57524;48.312;7.938;2022-09-11T10:25:21;99633.47;;;19.74;61.60
70158;BME280;57524;48.312;7.938;2022-09-11T10:27:59;99637.78;;;19.77;60.56
70158;BME280;57524;48.312;7.938;2022-09-11T10:30:30;99635.44;;;19.70;60.45
70158;BME280;57524;48.312;7.938;2022-09-11T10:33:00;99628.31;;;19.71;61.45
70158;BME280;57524;48.312;7.938;2022-09-11T10:35:30;99632.06;;;19.67;61.76
70158;BME280;57524;48.312;7.938;2022-09-11T10:37:59;99630.50;;;19.63;61.06
70158;BME280;57524;48.312;7.938;2022-09-11T10:40:31;99629.97;;;19.56;61.74
70158;BME280;57524;48.312;7.938;2022-09-11T10:42:59;99640.31;;;19.46;61.24
70158;BME280;57524;48.312;7.938;2022-09-11T10:45:26;99642.59;;;19.37;61.34
70158;BME280;57524;48.312;7.938;2022-09-11T10:47:52;99635.00;;;19.29;60.93
70158;BME280;57524;48.312;7.938;2022-09-11T10:50:22;99638.88;;;19.23;61.57
70158;BME280;57524;48.312;7.938;2022-09-11T10:52:59;99640.69;;;19.23;61.62
70158;BME280;57524;48.312;7.938;2022-09-11T10:55:31;99644.94;;;19.27;61.74
70158;BME280;57524;48.312;7.938;2022-09-11T10:58:04;99630.97;;;19.38;62.06
70158;BME280;57524;48.312;7.938;2022-09-11T11:00:33;99629.13;;;19.56;62.07
70158;BME280;57524;48.312;7.938;2022-09-11T11:03:04;99629.22;;;19.70;61.30
70158;BME280;57524;48.312;7.938;2022-09-11T11:05:43;99622.69;;;19.91;61.57
70158;BME280;57524;48.312;7.938;2022-09-11T11:11:12;99623.06;;;20.31;60.19
70158;BME280;57524;48.312;7.938;2022-09-11T11:14:00;99621.47;;;20.43;58.96
70158;BME280;57524;48.312;7.938;2022-09-11T11:16:39;99618.19;;;20.54;58.46
70158;BME280;57524;48.312;7.938;2022-09-11T11:19:30;99622.34;;;20.44;57.62
70158;BME280;57524;48.312;7.938;2022-09-11T11:22:10;99621.34;;;20.30;57.61
70158;BME280;57524;48.312;7.938;2022-09-11T11:24:55;99622.41;;;20.12;57.61
70158;BME280;57524;48.312;7.938;2022-09-11T11:27:36;99616.19;;;20.11;58.34
70158;BME280;57524;48.312;7.938;2022-09-11T11:30:11;99626.69;;;20.30;57.83
70158;BME280;57524;48.312;7.938;2022-09-11T11:32:53;99613.53;;;20.42;56.75
70158;BME280;57524;48.312;7.938;2022-09-11T11:35:29;99615.75;;;20.65;56.01
70158;BME280;57524;48.312;7.938;2022-09-11T11:38:08;99612.91;;;20.83;55.31
70158;BME280;57524;48.312;7.938;2022-09-11T11:40:40;99615.63;;;20.97;55.98
70158;BME280;57524;48.312;7.938;2022-09-11T11:43:10;99605.47;;;21.16;55.40
70158;BME280;57524;48.312;7.938;2022-09-11T11:45:42;99603.94;;;21.41;55.29
70158;BME280;57524;48.312;7.938;2022-09-11T11:48:13;99602.81;;;21.59;53.62
70158;BME280;57524;48.312;7.938;2022-09-11T11:50:43;99596.47;;;21.61;52.64
70158;BME280;57524;48.312;7.938;2022-09-11T11:53:17;99600.47;;;21.68;52.26
70158;BME280;57524;48.312;7.938;2022-09-11T11:55:55;99596.53;;;21.73;52.98
70158;BME280;57524;48.312;7.938;2022-09-11T11:58:35;99596.25;;;21.78;52.30
70158;BME280;57524;48.312;7.938;2022-09-11T12:01:10;99595.63;;;21.87;52.86
70158;BME280;57524;48.312;7.938;2022-09-11T12:03:45;99589.25;;;22.03;52.74
70158;BME280;57524;48.312;7.938;2022-09-11T12:06:14;99581.91;;;22.19;52.39
70158;BME280;57524;48.312;7.938;2022-09-11T12:08:42;99589.19;;;22.31;51.16
70158;BME280;57524;48.312;7.938;2022-09-11T12:11:11;99591.56;;;22.49;50.50
70158;BME280;57524;48.312;7.938;2022-09-11T12:13:41;99595.91;;;22.64;49.80
70158;BME280;57524;48.312;7.938;2022-09-11T12:16:13;99584.41;;;22.75;49.77
70158;BME280;57524;48.312;7.938;2022-09-11T12:19:03;99584.44;;;22.88;49.03
70158;BME280;57524;48.312;7.938;2022-09-11T12:21:38;99578.97;;;23.02;49.31
70158;BME280;57524;48.312;7.938;2022-09-11T12:24:15;99587.38;;;23.23;49.00
70158;BME280;57524;48.312;7.938;2022-09-11T12:26:42;99585.28;;;23.27;47.71
70158;BME280;57524;48.312;7.938;2022-09-11T12:32:42;99578.38;;;23.48;48.01
70158;BME280;57524;48.312;7.938;2022-09-11T12:35:15;99583.34;;;23.54;47.33
70158;BME280;57524;48.312;7.938;2022-09-11T12:37:49;99581.53;;;23.29;47.19
70158;BME280;57524;48.312;7.938;2022-09-11T12:40:22;99578.06;;;22.89;47.66
70158;BME280;57524;48.312;7.938;2022-09-11T12:42:56;99581.94;;;22.59;48.92
70158;BME280;57524;48.312;7.938;2022-09-11T12:45:32;99576.53;;;22.46;49.49
70158;BME280;57524;48.312;7.938;2022-09-11T12:48:09;99574.88;;;22.31;50.42
70158;BME280;57524;48.312;7.938;2022-09-11T12:50:37;99574.41;;;22.24;51.09
70158;BME280;57524;48.312;7.938;2022-09-11T12:53:14;99572.31;;;22.15;52.22
70158;BME280;57524;48.312;7.938;2022-09-11T12:55:50;99571.59;;;22.40;52.98
70158;BME280;57524;48.312;7.938;2022-09-11T12:58:25;99566.03;;;22.56;52.82
70158;BME280;57524;48.312;7.938;2022-09-11T13:01:01;99570.13;;;22.74;52.29
70158;BME280;57524;48.312;7.938;2022-09-11T13:03:30;99565.59;;;22.88;50.57
70158;BME280;57524;48.312;7.938;2022-09-11T13:05:59;99562.81;;;23.02;49.77
70158;BME280;57524;48.312;7.938;2022-09-11T13:08:29;99560.56;;;23.09;49.60
70158;BME280;57524;48.312;7.938;2022-09-11T13:13:57;99549.22;;;23.42;48.64
70158;BME280;57524;48.312;7.938;2022-09-11T13:16:25;99552.06;;;23.28;48.40
70158;BME280;57524;48.312;7.938;2022-09-11T13:18:57;99542.00;;;23.42;48.29
70158;BME280;57524;48.312;7.938;2022-09-11T13:21:24;99540.97;;;23.56;47.04
70158;BME280;57524;48.312;7.938;2022-09-11T13:23:51;99536.41;;;23.70;46.85
70158;BME280;57524;48.312;7.938;2022-09-11T13:26:23;99532.28;;;23.90;46.19
70158;BME280;57524;48.312;7.938;2022-09-11T13:28:53;99528.72;;;24.13;45.79
70158;BME280;57524;48.312;7.938;2022-09-11T13:31:29;99531.59;;;24.34;45.10
70158;BME280;57524;48.312;7.938;2022-09-11T13:33:59;99527.66;;;24.51;43.37